Hellevaroitus Alkaa: 22-07-2018 21:00 Päättyy: 23-07-2018 19:00 Varoitus: Hellevaroitus Taso: Keltainen info button
suomi:
Hellevaroitus: Lähivuorokauden aikana on odotettavissa tukalaa hellettä.

svenska:
Varning för värmebölja: Under det närmaste dygnet är den svåra hettan att vänta.

english:
Heat wave warning: Warm weather is expected during the coming 24 hours. 


Webkamera Lisätietoa Webcam


Sadetutka Lisätietoa rain snow radar


Yksityisiä sääasemia lähellä:

Sääasema Ruovesi, Lehtissaari

Sääasema Juupajoki

Sääasema Muurame

Sääasema Jyväskylä

Sääasema Vihtavuori


Löydät sääaseman tiedot myös:

Finland Weather Exchange

European Weather Network

Weather Underground

AWEKAS



Säätiedot lähimmiltä METAR asemilta

   
EFHA - Halli (Fin-Afb), Finland
Etäisyys asemalta: Kaakko 25 km
Päivitetty: 22.07.2018 21:20
Selkeää  
Selkeää  
   Tuuli: Etelälounas 2.6 m/s
Tuuli: Etelälounas 2.6 m/s
Lämpötila: 24°C
Kastepiste: 12°C
Kosteus: 47%
Ilmanpaine: 1008 hPa
Näkyvyys: Enemmän kuin 10 km
Pilvitiedot: Selkeää
EFHA 221820Z AUTO 21005KT CAVOK 24/12 Q1008
EFJY - Jyvaskyla (Mil/Civ), Finland
Etäisyys asemalta: Koillinen 75 km
Päivitetty: 22.07.2018 21:20
Selkeää  
Selkeää  
   Tuuli: Etelä 1.5 m/s
Tuuli: Etelä 1.5 m/s
Lämpötila: 24°C
Kastepiste: 15°C
Kosteus: 57%
Ilmanpaine: 1007 hPa
Näkyvyys: Enemmän kuin 10 km
Pilvitiedot: Selkeää
EFJY 221820Z AUTO 17003KT CAVOK 24/15 Q1007
EFTP - Tampere/Pirkkala, Finland
Etäisyys asemalta: Lounas 81 km
Päivitetty: 22.07.2018 21:20
Selkeää  
Selkeää  
   Tuuli: Etelälounas 3.6 m/s
Tuuli: Etelälounas 3.6 m/s
Lämpötila: 23°C
Kastepiste: 12°C
Kosteus: 50%
Ilmanpaine: 1008 hPa
Näkyvyys: Enemmän kuin 10 km
Pilvitiedot: Selkeää
EFTP 221820Z AUTO 21007KT CAVOK 23/12 Q1008
EFSI - Seinajoki-Ilmajoki, Finland
Etäisyys asemalta: Luode 114 km
Päivitetty: 22.07.2018 21:20
Selkeää  
Selkeää  
   Tuuli: Lounas 2.1 m/s
Tuuli: Lounas 2.1 m/s
Lämpötila: 21°C
Kastepiste: 15°C
Kosteus: 69%
Ilmanpaine: 1007 hPa
Näkyvyys: Enemmän kuin 10 km
Pilvitiedot: Selkeää
EFSI 221820Z AUTO 23004KT 190V300 CAVOK 21/15 Q1007
EFMI - Mikkeli, Finland
Etäisyys asemalta: Itäkaakko 147 km
Päivitetty: 22.07.2018 21:20
Selkeää  
Selkeää  
   Tuuli: Eteläkaakko 0.5 m/s
Tuuli: Eteläkaakko 0.5 m/s
Lämpötila: 23°C
Kastepiste: 17°C
Kosteus: 69%
Ilmanpaine: 1009 hPa
Näkyvyys: Enemmän kuin 10 km
Pilvitiedot: Selkeää
EFMI 221820Z AUTO 16001KT CAVOK 23/17 Q1009
EFPO - Pori (Mil/Civ), Finland
Etäisyys asemalta: Länsilounas 154 km
Päivitetty: 22.07.2018 21:20
Selkeää  
Selkeää  
   Tuuli: Lounas 2.6 m/s
Tuuli: Lounas 2.6 m/s
Lämpötila: 20°C
Kastepiste: 15°C
Kosteus: 73%
Ilmanpaine: 1008 hPa
Näkyvyys: Enemmän kuin 10 km
Pilvitiedot: Selkeää
EFPO 221820Z AUTO 22005KT CAVOK 20/15 Q1008
EFUT - Utti (Fin-Afb), Finland
Etäisyys asemalta: Kaakko 180 km
Päivitetty: 22.07.2018 21:20
Selkeää  
Selkeää  
   Tuuli: Etelä 2.6 m/s
Tuuli: Etelä 2.6 m/s
Lämpötila: 24°C
Kastepiste: 16°C
Kosteus: 61%
Ilmanpaine: 1009 hPa
Näkyvyys: Enemmän kuin 10 km
Pilvitiedot: Selkeää
EFUT 221820Z AUTO 19005KT CAVOK 24/16 Q1009
EFVA - Vaasa, Finland
Etäisyys asemalta: Luode 180 km
Päivitetty: 22.07.2018 21:20
Melkein pilvistä  
Melkein pilvistä  
   Tuuli: Etelälounas 3.6 m/s
Tuuli: Etelälounas 3.6 m/s
Lämpötila: 20°C
Kastepiste: 16°C
Kosteus: 78%
Ilmanpaine: 1006 hPa
Pilvisyys: Melkein pilvistä
Näkyvyys: Enemmän kuin 10 km
Pilvitiedot: Vähäistä pilvisyyttä 549 m,
Melkein pilvistä 823 m
EFVA 221820Z AUTO 21007KT 9999 FEW018/// BKN027/// 20/16 Q1006
EFHK - Helsinki/Vantaa, Finland
Etäisyys asemalta: Etelä 191 km
Päivitetty: 22.07.2018 21:20
Selkeää  
Selkeää  
   Tuuli: Etelälounas 4.1 m/s
Tuuli: Etelälounas 4.1 m/s
Lämpötila: 24°C
Kastepiste: 12°C
Kosteus: 47%
Ilmanpaine: 1009 hPa
Näkyvyys: Enemmän kuin 10 km
Pilvitiedot: Selkeää
EFHK 221820Z 21008KT CAVOK 24/12 Q1009 NOSIG

Alkuperäinen skripti  Saratoga-weather.org Sovitettu myös templatelle  Weerstation Leuven

Laitteet joita käytämme:

Sääasema
Davis VP2

Sääasemaohjelma
Cumulus

Sääaseman palvelin
HP ProBook 6460b

Palveluntarjoaja
Radicenter

Davis VP2

Cumulus

HP ProBook 6460b

Radicenter




Flag Counter Cumulus Top Weather Sites